sensor_id;sensor_type;location;lat;lon;timestamp;P1;durP1;ratioP1;P2;durP2;ratioP2
55815;SDS011;41744;52.404;16.942;2023-06-22T00:02:00;22.00;;;14.20;;
55815;SDS011;41744;52.404;16.942;2023-06-22T00:04:26;23.75;;;14.25;;
55815;SDS011;41744;52.404;16.942;2023-06-22T00:06:52;24.55;;;14.30;;
55815;SDS011;41744;52.404;16.942;2023-06-22T00:09:18;22.05;;;14.48;;
55815;SDS011;41744;52.404;16.942;2023-06-22T00:11:44;21.25;;;13.38;;
55815;SDS011;41744;52.404;16.942;2023-06-22T00:14:10;21.13;;;13.88;;
55815;SDS011;41744;52.404;16.942;2023-06-22T00:16:36;18.98;;;13.52;;
55815;SDS011;41744;52.404;16.942;2023-06-22T00:19:02;25.10;;;14.45;;
55815;SDS011;41744;52.404;16.942;2023-06-22T00:21:29;21.30;;;14.15;;
55815;SDS011;41744;52.404;16.942;2023-06-22T00:23:55;18.80;;;13.60;;
55815;SDS011;41744;52.404;16.942;2023-06-22T00:26:22;20.58;;;13.75;;
55815;SDS011;41744;52.404;16.942;2023-06-22T00:28:48;21.67;;;14.77;;
55815;SDS011;41744;52.404;16.942;2023-06-22T00:31:14;23.10;;;14.80;;
55815;SDS011;41744;52.404;16.942;2023-06-22T00:33:40;21.17;;;13.38;;
55815;SDS011;41744;52.404;16.942;2023-06-22T00:36:06;21.83;;;13.85;;
55815;SDS011;41744;52.404;16.942;2023-06-22T00:38:33;23.98;;;13.63;;
55815;SDS011;41744;52.404;16.942;2023-06-22T00:40:59;21.85;;;13.57;;
55815;SDS011;41744;52.404;16.942;2023-06-22T00:43:25;23.92;;;13.90;;
55815;SDS011;41744;52.404;16.942;2023-06-22T00:45:51;24.58;;;13.15;;
55815;SDS011;41744;52.404;16.942;2023-06-22T00:48:17;21.95;;;13.02;;
55815;SDS011;41744;52.404;16.942;2023-06-22T00:50:43;18.40;;;13.13;;
55815;SDS011;41744;52.404;16.942;2023-06-22T00:53:09;18.95;;;13.00;;
55815;SDS011;41744;52.404;16.942;2023-06-22T00:55:45;20.65;;;13.43;;
55815;SDS011;41744;52.404;16.942;2023-06-22T00:58:18;19.70;;;12.98;;
55815;SDS011;41744;52.404;16.942;2023-06-22T01:00:46;18.25;;;12.88;;
55815;SDS011;41744;52.404;16.942;2023-06-22T01:03:13;19.52;;;13.20;;
55815;SDS011;41744;52.404;16.942;2023-06-22T01:05:39;22.10;;;12.27;;
55815;SDS011;41744;52.404;16.942;2023-06-22T01:10:54;16.40;;;12.32;;
55815;SDS011;41744;52.404;16.942;2023-06-22T01:13:28;17.40;;;12.30;;
55815;SDS011;41744;52.404;16.942;2023-06-22T01:15:57;16.45;;;12.02;;
55815;SDS011;41744;52.404;16.942;2023-06-22T01:18:26;18.10;;;12.65;;
55815;SDS011;41744;52.404;16.942;2023-06-22T01:20:54;16.63;;;11.52;;
55815;SDS011;41744;52.404;16.942;2023-06-22T01:26:17;18.35;;;12.38;;
55815;SDS011;41744;52.404;16.942;2023-06-22T01:31:16;17.08;;;11.55;;
55815;SDS011;41744;52.404;16.942;2023-06-22T01:33:43;17.50;;;11.98;;
55815;SDS011;41744;52.404;16.942;2023-06-22T01:36:10;18.23;;;12.55;;
55815;SDS011;41744;52.404;16.942;2023-06-22T01:38:37;19.00;;;12.55;;
55815;SDS011;41744;52.404;16.942;2023-06-22T01:41:04;18.83;;;12.20;;
55815;SDS011;41744;52.404;16.942;2023-06-22T01:43:31;16.10;;;12.32;;
55815;SDS011;41744;52.404;16.942;2023-06-22T01:45:59;21.65;;;13.00;;
55815;SDS011;41744;52.404;16.942;2023-06-22T01:48:25;19.05;;;12.73;;
55815;SDS011;41744;52.404;16.942;2023-06-22T01:50:52;17.52;;;12.23;;
55815;SDS011;41744;52.404;16.942;2023-06-22T01:53:20;16.95;;;12.52;;
55815;SDS011;41744;52.404;16.942;2023-06-22T01:55:46;18.70;;;12.88;;
55815;SDS011;41744;52.404;16.942;2023-06-22T01:58:12;20.88;;;12.77;;
55815;SDS011;41744;52.404;16.942;2023-06-22T02:00:38;19.30;;;12.73;;
55815;SDS011;41744;52.404;16.942;2023-06-22T02:03:10;18.45;;;13.02;;
55815;SDS011;41744;52.404;16.942;2023-06-22T02:05:38;19.63;;;12.70;;
55815;SDS011;41744;52.404;16.942;2023-06-22T02:08:08;20.80;;;12.98;;
55815;SDS011;41744;52.404;16.942;2023-06-22T02:10:35;18.95;;;12.93;;
55815;SDS011;41744;52.404;16.942;2023-06-22T02:13:02;19.77;;;13.63;;
55815;SDS011;41744;52.404;16.942;2023-06-22T02:15:28;17.73;;;12.93;;
55815;SDS011;41744;52.404;16.942;2023-06-22T02:17:54;17.85;;;12.57;;
55815;SDS011;41744;52.404;16.942;2023-06-22T02:20:21;19.52;;;13.25;;
55815;SDS011;41744;52.404;16.942;2023-06-22T02:22:47;21.20;;;12.20;;
55815;SDS011;41744;52.404;16.942;2023-06-22T02:25:13;20.48;;;13.50;;
55815;SDS011;41744;52.404;16.942;2023-06-22T02:27:39;19.35;;;13.25;;
55815;SDS011;41744;52.404;16.942;2023-06-22T02:30:06;19.27;;;12.93;;
55815;SDS011;41744;52.404;16.942;2023-06-22T02:32:32;20.17;;;13.07;;
55815;SDS011;41744;52.404;16.942;2023-06-22T02:35:00;20.75;;;12.95;;
55815;SDS011;41744;52.404;16.942;2023-06-22T02:37:30;19.33;;;12.48;;
55815;SDS011;41744;52.404;16.942;2023-06-22T02:39:56;18.20;;;12.20;;
55815;SDS011;41744;52.404;16.942;2023-06-22T02:42:22;18.33;;;12.82;;
55815;SDS011;41744;52.404;16.942;2023-06-22T02:44:48;17.50;;;12.43;;
55815;SDS011;41744;52.404;16.942;2023-06-22T02:47:14;15.93;;;11.18;;
55815;SDS011;41744;52.404;16.942;2023-06-22T02:49:40;17.95;;;12.43;;
55815;SDS011;41744;52.404;16.942;2023-06-22T02:52:06;17.80;;;11.63;;
55815;SDS011;41744;52.404;16.942;2023-06-22T02:54:32;16.08;;;11.07;;
55815;SDS011;41744;52.404;16.942;2023-06-22T02:56:58;14.27;;;10.23;;
55815;SDS011;41744;52.404;16.942;2023-06-22T02:59:27;15.05;;;9.95;;
55815;SDS011;41744;52.404;16.942;2023-06-22T03:01:53;13.60;;;10.13;;
55815;SDS011;41744;52.404;16.942;2023-06-22T03:04:20;12.43;;;8.95;;
55815;SDS011;41744;52.404;16.942;2023-06-22T03:06:46;12.90;;;8.75;;
55815;SDS011;41744;52.404;16.942;2023-06-22T03:09:16;12.32;;;8.50;;
55815;SDS011;41744;52.404;16.942;2023-06-22T03:11:42;11.80;;;8.10;;
55815;SDS011;41744;52.404;16.942;2023-06-22T03:14:08;10.65;;;7.13;;
55815;SDS011;41744;52.404;16.942;2023-06-22T03:16:34;10.48;;;7.68;;
55815;SDS011;41744;52.404;16.942;2023-06-22T03:19:01;10.95;;;7.45;;
55815;SDS011;41744;52.404;16.942;2023-06-22T03:21:28;10.35;;;7.10;;
55815;SDS011;41744;52.404;16.942;2023-06-22T03:23:54;10.80;;;6.97;;
55815;SDS011;41744;52.404;16.942;2023-06-22T03:26:20;11.65;;;7.07;;
55815;SDS011;41744;52.404;16.942;2023-06-22T03:28:46;11.60;;;6.30;;
55815;SDS011;41744;52.404;16.942;2023-06-22T03:31:12;8.43;;;6.40;;
55815;SDS011;41744;52.404;16.942;2023-06-22T03:33:38;9.65;;;5.95;;
55815;SDS011;41744;52.404;16.942;2023-06-22T03:36:04;8.32;;;6.30;;
55815;SDS011;41744;52.404;16.942;2023-06-22T03:38:30;8.65;;;6.32;;
55815;SDS011;41744;52.404;16.942;2023-06-22T03:40:56;9.27;;;7.00;;
55815;SDS011;41744;52.404;16.942;2023-06-22T03:43:23;9.45;;;6.35;;
55815;SDS011;41744;52.404;16.942;2023-06-22T03:45:49;8.73;;;6.00;;
55815;SDS011;41744;52.404;16.942;2023-06-22T03:48:15;10.25;;;5.88;;
55815;SDS011;41744;52.404;16.942;2023-06-22T03:50:41;8.73;;;6.10;;
55815;SDS011;41744;52.404;16.942;2023-06-22T03:53:08;8.57;;;5.72;;
55815;SDS011;41744;52.404;16.942;2023-06-22T03:55:35;9.30;;;5.95;;
55815;SDS011;41744;52.404;16.942;2023-06-22T03:58:01;11.32;;;5.80;;
55815;SDS011;41744;52.404;16.942;2023-06-22T04:00:31;14.10;;;6.30;;
55815;SDS011;41744;52.404;16.942;2023-06-22T04:02:57;10.32;;;5.30;;
55815;SDS011;41744;52.404;16.942;2023-06-22T04:05:23;9.27;;;5.50;;
55815;SDS011;41744;52.404;16.942;2023-06-22T04:07:49;10.95;;;5.30;;
55815;SDS011;41744;52.404;16.942;2023-06-22T04:10:15;7.93;;;5.50;;
55815;SDS011;41744;52.404;16.942;2023-06-22T04:12:41;8.23;;;5.55;;
55815;SDS011;41744;52.404;16.942;2023-06-22T04:15:07;8.48;;;5.55;;
55815;SDS011;41744;52.404;16.942;2023-06-22T04:17:34;9.63;;;6.00;;
55815;SDS011;41744;52.404;16.942;2023-06-22T04:20:00;8.27;;;5.63;;
55815;SDS011;41744;52.404;16.942;2023-06-22T04:22:26;10.15;;;5.93;;
55815;SDS011;41744;52.404;16.942;2023-06-22T04:24:52;10.80;;;5.38;;
55815;SDS011;41744;52.404;16.942;2023-06-22T04:27:18;6.68;;;5.03;;
55815;SDS011;41744;52.404;16.942;2023-06-22T04:29:44;8.35;;;5.65;;
55815;SDS011;41744;52.404;16.942;2023-06-22T04:32:14;7.63;;;5.57;;
55815;SDS011;41744;52.404;16.942;2023-06-22T04:34:40;7.63;;;5.60;;
55815;SDS011;41744;52.404;16.942;2023-06-22T04:37:06;10.55;;;5.57;;
55815;SDS011;41744;52.404;16.942;2023-06-22T04:39:32;10.18;;;5.25;;
55815;SDS011;41744;52.404;16.942;2023-06-22T04:41:58;10.52;;;5.07;;
55815;SDS011;41744;52.404;16.942;2023-06-22T04:44:25;8.00;;;4.90;;
55815;SDS011;41744;52.404;16.942;2023-06-22T04:46:55;10.45;;;4.95;;
55815;SDS011;41744;52.404;16.942;2023-06-22T04:49:25;8.23;;;4.60;;
55815;SDS011;41744;52.404;16.942;2023-06-22T04:51:57;6.95;;;4.55;;
55815;SDS011;41744;52.404;16.942;2023-06-22T04:54:23;5.55;;;4.13;;
55815;SDS011;41744;52.404;16.942;2023-06-22T04:56:50;6.72;;;4.70;;
55815;SDS011;41744;52.404;16.942;2023-06-22T04:59:21;8.13;;;4.30;;
55815;SDS011;41744;52.404;16.942;2023-06-22T05:01:54;6.63;;;3.95;;
55815;SDS011;41744;52.404;16.942;2023-06-22T05:04:21;7.32;;;4.20;;
55815;SDS011;41744;52.404;16.942;2023-06-22T05:06:48;6.70;;;4.32;;
55815;SDS011;41744;52.404;16.942;2023-06-22T05:09:14;7.07;;;3.58;;
55815;SDS011;41744;52.404;16.942;2023-06-22T05:11:40;6.28;;;3.58;;
55815;SDS011;41744;52.404;16.942;2023-06-22T05:14:06;6.70;;;3.60;;
55815;SDS011;41744;52.404;16.942;2023-06-22T05:16:32;9.00;;;3.88;;
55815;SDS011;41744;52.404;16.942;2023-06-22T05:18:58;5.03;;;3.67;;
55815;SDS011;41744;52.404;16.942;2023-06-22T05:21:25;5.80;;;3.40;;
55815;SDS011;41744;52.404;16.942;2023-06-22T05:23:52;5.18;;;3.25;;
55815;SDS011;41744;52.404;16.942;2023-06-22T05:26:19;7.25;;;3.20;;
55815;SDS011;41744;52.404;16.942;2023-06-22T05:28:46;5.55;;;3.33;;
55815;SDS011;41744;52.404;16.942;2023-06-22T05:31:13;4.57;;;3.22;;
55815;SDS011;41744;52.404;16.942;2023-06-22T05:33:43;5.22;;;3.17;;
55815;SDS011;41744;52.404;16.942;2023-06-22T05:36:09;7.10;;;3.15;;
55815;SDS011;41744;52.404;16.942;2023-06-22T05:38:35;5.65;;;3.13;;
55815;SDS011;41744;52.404;16.942;2023-06-22T05:41:01;7.78;;;3.33;;
55815;SDS011;41744;52.404;16.942;2023-06-22T05:43:27;6.97;;;3.30;;
55815;SDS011;41744;52.404;16.942;2023-06-22T05:45:54;7.53;;;3.22;;
55815;SDS011;41744;52.404;16.942;2023-06-22T05:48:20;5.43;;;2.92;;
55815;SDS011;41744;52.404;16.942;2023-06-22T05:50:46;5.57;;;2.70;;
55815;SDS011;41744;52.404;16.942;2023-06-22T05:53:12;4.70;;;2.58;;
55815;SDS011;41744;52.404;16.942;2023-06-22T05:55:38;6.45;;;3.00;;
55815;SDS011;41744;52.404;16.942;2023-06-22T05:58:04;5.90;;;2.90;;
55815;SDS011;41744;52.404;16.942;2023-06-22T06:00:30;4.47;;;3.03;;
55815;SDS011;41744;52.404;16.942;2023-06-22T06:02:56;4.78;;;2.53;;
55815;SDS011;41744;52.404;16.942;2023-06-22T06:05:28;3.58;;;2.75;;
55815;SDS011;41744;52.404;16.942;2023-06-22T06:07:54;5.40;;;2.88;;
55815;SDS011;41744;52.404;16.942;2023-06-22T06:10:20;6.78;;;2.90;;
55815;SDS011;41744;52.404;16.942;2023-06-22T06:12:46;6.90;;;2.92;;
55815;SDS011;41744;52.404;16.942;2023-06-22T06:15:12;6.95;;;2.90;;
55815;SDS011;41744;52.404;16.942;2023-06-22T06:17:45;6.78;;;2.60;;
55815;SDS011;41744;52.404;16.942;2023-06-22T06:20:11;4.90;;;3.10;;
55815;SDS011;41744;52.404;16.942;2023-06-22T06:22:37;8.10;;;3.00;;
55815;SDS011;41744;52.404;16.942;2023-06-22T06:25:04;5.82;;;2.67;;
55815;SDS011;41744;52.404;16.942;2023-06-22T06:27:30;4.35;;;2.97;;
55815;SDS011;41744;52.404;16.942;2023-06-22T06:29:57;4.68;;;2.60;;
55815;SDS011;41744;52.404;16.942;2023-06-22T06:32:23;5.78;;;3.20;;
55815;SDS011;41744;52.404;16.942;2023-06-22T06:34:49;9.82;;;2.65;;
55815;SDS011;41744;52.404;16.942;2023-06-22T06:37:16;6.63;;;3.10;;
55815;SDS011;41744;52.404;16.942;2023-06-22T06:39:43;4.43;;;2.78;;
55815;SDS011;41744;52.404;16.942;2023-06-22T06:42:09;4.43;;;2.72;;
55815;SDS011;41744;52.404;16.942;2023-06-22T06:44:36;5.75;;;2.70;;
55815;SDS011;41744;52.404;16.942;2023-06-22T06:47:03;5.97;;;2.97;;
55815;SDS011;41744;52.404;16.942;2023-06-22T06:49:29;4.43;;;2.90;;
55815;SDS011;41744;52.404;16.942;2023-06-22T06:51:55;5.50;;;2.95;;
55815;SDS011;41744;52.404;16.942;2023-06-22T06:54:21;3.28;;;2.50;;
55815;SDS011;41744;52.404;16.942;2023-06-22T06:56:47;10.40;;;3.15;;
55815;SDS011;41744;52.404;16.942;2023-06-22T06:59:14;5.10;;;3.15;;
55815;SDS011;41744;52.404;16.942;2023-06-22T07:01:41;13.50;;;3.42;;
55815;SDS011;41744;52.404;16.942;2023-06-22T07:04:07;19.20;;;3.58;;
55815;SDS011;41744;52.404;16.942;2023-06-22T07:06:33;9.95;;;2.88;;
55815;SDS011;41744;52.404;16.942;2023-06-22T07:08:59;12.57;;;3.70;;
55815;SDS011;41744;52.404;16.942;2023-06-22T07:11:26;12.18;;;2.95;;
55815;SDS011;41744;52.404;16.942;2023-06-22T07:13:52;9.95;;;3.08;;
55815;SDS011;41744;52.404;16.942;2023-06-22T07:16:18;10.40;;;2.97;;
55815;SDS011;41744;52.404;16.942;2023-06-22T07:18:44;6.25;;;2.55;;
55815;SDS011;41744;52.404;16.942;2023-06-22T07:21:10;9.63;;;2.67;;
55815;SDS011;41744;52.404;16.942;2023-06-22T07:23:36;5.78;;;2.88;;
55815;SDS011;41744;52.404;16.942;2023-06-22T07:26:02;6.03;;;2.90;;
55815;SDS011;41744;52.404;16.942;2023-06-22T07:28:31;4.50;;;2.28;;
55815;SDS011;41744;52.404;16.942;2023-06-22T07:31:02;6.05;;;2.80;;
55815;SDS011;41744;52.404;16.942;2023-06-22T07:33:29;6.63;;;2.67;;
55815;SDS011;41744;52.404;16.942;2023-06-22T07:35:55;5.93;;;2.80;;
55815;SDS011;41744;52.404;16.942;2023-06-22T07:38:21;5.15;;;2.72;;
55815;SDS011;41744;52.404;16.942;2023-06-22T07:40:47;6.85;;;2.83;;
55815;SDS011;41744;52.404;16.942;2023-06-22T07:43:13;5.28;;;2.60;;
55815;SDS011;41744;52.404;16.942;2023-06-22T07:45:39;7.00;;;3.00;;
55815;SDS011;41744;52.404;16.942;2023-06-22T07:48:07;4.57;;;2.78;;
55815;SDS011;41744;52.404;16.942;2023-06-22T07:50:33;3.88;;;2.33;;
55815;SDS011;41744;52.404;16.942;2023-06-22T07:52:59;5.75;;;2.47;;
55815;SDS011;41744;52.404;16.942;2023-06-22T07:55:25;4.25;;;2.75;;
55815;SDS011;41744;52.404;16.942;2023-06-22T07:57:51;5.82;;;2.90;;
55815;SDS011;41744;52.404;16.942;2023-06-22T08:00:17;6.05;;;2.55;;
55815;SDS011;41744;52.404;16.942;2023-06-22T08:02:44;5.38;;;2.50;;
55815;SDS011;41744;52.404;16.942;2023-06-22T08:05:10;9.43;;;2.90;;
55815;SDS011;41744;52.404;16.942;2023-06-22T08:07:37;4.82;;;2.78;;
55815;SDS011;41744;52.404;16.942;2023-06-22T08:10:04;5.32;;;2.67;;
55815;SDS011;41744;52.404;16.942;2023-06-22T08:12:30;5.75;;;2.63;;
55815;SDS011;41744;52.404;16.942;2023-06-22T08:14:56;6.32;;;4.07;;
55815;SDS011;41744;52.404;16.942;2023-06-22T08:17:23;4.90;;;2.67;;
55815;SDS011;41744;52.404;16.942;2023-06-22T08:19:49;5.13;;;2.80;;
55815;SDS011;41744;52.404;16.942;2023-06-22T08:22:16;8.20;;;3.10;;
55815;SDS011;41744;52.404;16.942;2023-06-22T08:24:43;5.85;;;2.75;;
55815;SDS011;41744;52.404;16.942;2023-06-22T08:27:10;6.97;;;3.28;;
55815;SDS011;41744;52.404;16.942;2023-06-22T08:29:41;5.10;;;3.00;;
55815;SDS011;41744;52.404;16.942;2023-06-22T08:32:13;5.00;;;2.83;;
55815;SDS011;41744;52.404;16.942;2023-06-22T08:34:39;4.18;;;2.63;;
55815;SDS011;41744;52.404;16.942;2023-06-22T08:37:10;5.82;;;2.65;;
55815;SDS011;41744;52.404;16.942;2023-06-22T08:39:36;4.35;;;2.80;;
55815;SDS011;41744;52.404;16.942;2023-06-22T08:42:04;3.95;;;2.63;;
55815;SDS011;41744;52.404;16.942;2023-06-22T08:44:30;6.60;;;3.30;;
55815;SDS011;41744;52.404;16.942;2023-06-22T08:46:56;5.43;;;3.00;;
55815;SDS011;41744;52.404;16.942;2023-06-22T08:49:22;5.18;;;3.20;;
55815;SDS011;41744;52.404;16.942;2023-06-22T08:51:48;8.57;;;3.70;;
55815;SDS011;41744;52.404;16.942;2023-06-22T08:54:14;4.00;;;2.95;;
55815;SDS011;41744;52.404;16.942;2023-06-22T08:56:40;5.07;;;3.10;;
55815;SDS011;41744;52.404;16.942;2023-06-22T08:59:09;5.18;;;2.63;;
55815;SDS011;41744;52.404;16.942;2023-06-22T09:01:35;11.10;;;2.90;;
55815;SDS011;41744;52.404;16.942;2023-06-22T09:04:01;4.95;;;3.03;;
55815;SDS011;41744;52.404;16.942;2023-06-22T09:06:27;4.35;;;3.03;;
55815;SDS011;41744;52.404;16.942;2023-06-22T09:08:53;8.07;;;3.10;;
55815;SDS011;41744;52.404;16.942;2023-06-22T09:11:19;4.40;;;2.60;;
55815;SDS011;41744;52.404;16.942;2023-06-22T09:13:45;6.85;;;2.78;;
55815;SDS011;41744;52.404;16.942;2023-06-22T09:16:11;4.68;;;2.42;;
55815;SDS011;41744;52.404;16.942;2023-06-22T09:18:37;5.50;;;2.90;;
55815;SDS011;41744;52.404;16.942;2023-06-22T09:21:03;5.05;;;2.58;;
55815;SDS011;41744;52.404;16.942;2023-06-22T09:23:29;7.25;;;2.50;;
55815;SDS011;41744;52.404;16.942;2023-06-22T09:25:55;3.92;;;2.40;;
55815;SDS011;41744;52.404;16.942;2023-06-22T09:28:21;4.32;;;2.80;;
55815;SDS011;41744;52.404;16.942;2023-06-22T09:30:47;3.28;;;2.42;;
55815;SDS011;41744;52.404;16.942;2023-06-22T09:33:13;4.03;;;2.70;;
55815;SDS011;41744;52.404;16.942;2023-06-22T09:35:39;3.92;;;2.25;;
55815;SDS011;41744;52.404;16.942;2023-06-22T09:38:05;4.72;;;2.33;;
55815;SDS011;41744;52.404;16.942;2023-06-22T09:40:31;4.45;;;2.55;;
55815;SDS011;41744;52.404;16.942;2023-06-22T09:43:00;3.45;;;2.40;;
55815;SDS011;41744;52.404;16.942;2023-06-22T09:45:26;4.57;;;2.50;;
55815;SDS011;41744;52.404;16.942;2023-06-22T09:47:52;3.70;;;2.20;;
55815;SDS011;41744;52.404;16.942;2023-06-22T09:50:18;4.18;;;2.78;;
55815;SDS011;41744;52.404;16.942;2023-06-22T09:52:44;3.63;;;2.47;;
55815;SDS011;41744;52.404;16.942;2023-06-22T09:55:15;3.17;;;2.50;;
55815;SDS011;41744;52.404;16.942;2023-06-22T09:57:41;5.10;;;2.53;;
55815;SDS011;41744;52.404;16.942;2023-06-22T10:00:07;3.75;;;2.60;;
55815;SDS011;41744;52.404;16.942;2023-06-22T10:02:34;5.05;;;2.40;;
55815;SDS011;41744;52.404;16.942;2023-06-22T10:05:00;4.13;;;2.63;;
55815;SDS011;41744;52.404;16.942;2023-06-22T10:07:26;4.30;;;2.50;;
55815;SDS011;41744;52.404;16.942;2023-06-22T10:09:52;4.10;;;2.75;;
55815;SDS011;41744;52.404;16.942;2023-06-22T10:12:18;5.90;;;2.88;;
55815;SDS011;41744;52.404;16.942;2023-06-22T10:14:44;5.57;;;2.65;;
55815;SDS011;41744;52.404;16.942;2023-06-22T10:17:10;4.72;;;2.50;;
55815;SDS011;41744;52.404;16.942;2023-06-22T10:19:36;6.20;;;2.60;;
55815;SDS011;41744;52.404;16.942;2023-06-22T10:22:04;4.93;;;2.72;;
55815;SDS011;41744;52.404;16.942;2023-06-22T10:24:30;3.90;;;2.78;;
55815;SDS011;41744;52.404;16.942;2023-06-22T10:26:56;4.40;;;2.47;;
55815;SDS011;41744;52.404;16.942;2023-06-22T10:29:22;3.95;;;2.50;;
55815;SDS011;41744;52.404;16.942;2023-06-22T10:31:48;4.50;;;2.60;;
55815;SDS011;41744;52.404;16.942;2023-06-22T10:34:14;3.45;;;2.30;;
55815;SDS011;41744;52.404;16.942;2023-06-22T10:36:40;4.72;;;2.60;;
55815;SDS011;41744;52.404;16.942;2023-06-22T10:39:06;4.60;;;2.50;;
55815;SDS011;41744;52.404;16.942;2023-06-22T10:41:33;4.25;;;2.65;;
55815;SDS011;41744;52.404;16.942;2023-06-22T10:43:59;4.93;;;2.60;;
55815;SDS011;41744;52.404;16.942;2023-06-22T10:46:25;3.50;;;2.60;;
55815;SDS011;41744;52.404;16.942;2023-06-22T10:48:52;4.65;;;2.97;;
55815;SDS011;41744;52.404;16.942;2023-06-22T10:51:20;4.07;;;2.60;;
55815;SDS011;41744;52.404;16.942;2023-06-22T10:53:46;9.43;;;3.00;;
55815;SDS011;41744;52.404;16.942;2023-06-22T10:56:12;6.88;;;2.70;;
55815;SDS011;41744;52.404;16.942;2023-06-22T10:58:38;5.95;;;2.70;;
55815;SDS011;41744;52.404;16.942;2023-06-22T11:01:04;5.25;;;2.67;;
55815;SDS011;41744;52.404;16.942;2023-06-22T11:03:30;3.75;;;2.72;;
55815;SDS011;41744;52.404;16.942;2023-06-22T11:05:56;5.53;;;2.78;;
55815;SDS011;41744;52.404;16.942;2023-06-22T11:08:22;5.10;;;2.80;;
55815;SDS011;41744;52.404;16.942;2023-06-22T11:10:48;4.10;;;2.78;;
55815;SDS011;41744;52.404;16.942;2023-06-22T11:13:14;4.93;;;2.60;;
55815;SDS011;41744;52.404;16.942;2023-06-22T11:15:40;3.90;;;2.80;;
55815;SDS011;41744;52.404;16.942;2023-06-22T11:18:06;4.63;;;2.63;;
55815;SDS011;41744;52.404;16.942;2023-06-22T11:20:33;4.55;;;3.00;;
55815;SDS011;41744;52.404;16.942;2023-06-22T11:23:04;4.72;;;2.63;;
55815;SDS011;41744;52.404;16.942;2023-06-22T11:25:31;3.30;;;2.75;;
55815;SDS011;41744;52.404;16.942;2023-06-22T11:27:59;4.35;;;2.80;;
55815;SDS011;41744;52.404;16.942;2023-06-22T11:30:25;9.40;;;2.90;;
55815;SDS011;41744;52.404;16.942;2023-06-22T11:32:52;4.78;;;2.95;;
55815;SDS011;41744;52.404;16.942;2023-06-22T11:35:18;4.55;;;3.00;;
55815;SDS011;41744;52.404;16.942;2023-06-22T11:37:44;4.47;;;2.97;;
55815;SDS011;41744;52.404;16.942;2023-06-22T11:40:10;7.45;;;2.83;;
55815;SDS011;41744;52.404;16.942;2023-06-22T11:42:36;4.13;;;3.17;;
55815;SDS011;41744;52.404;16.942;2023-06-22T11:45:04;4.95;;;3.00;;
55815;SDS011;41744;52.404;16.942;2023-06-22T11:47:30;4.35;;;3.25;;
55815;SDS011;41744;52.404;16.942;2023-06-22T11:49:56;4.20;;;2.80;;
55815;SDS011;41744;52.404;16.942;2023-06-22T11:52:22;6.10;;;2.90;;
55815;SDS011;41744;52.404;16.942;2023-06-22T11:54:48;4.07;;;2.83;;
55815;SDS011;41744;52.404;16.942;2023-06-22T11:57:14;6.60;;;3.20;;
55815;SDS011;41744;52.404;16.942;2023-06-22T11:59:40;8.43;;;3.42;;
55815;SDS011;41744;52.404;16.942;2023-06-22T12:02:06;4.97;;;2.95;;
55815;SDS011;41744;52.404;16.942;2023-06-22T12:04:34;5.10;;;3.28;;
55815;SDS011;41744;52.404;16.942;2023-06-22T12:07:00;5.65;;;3.40;;
55815;SDS011;41744;52.404;16.942;2023-06-22T12:09:27;4.90;;;3.47;;
55815;SDS011;41744;52.404;16.942;2023-06-22T12:11:53;5.05;;;3.22;;
55815;SDS011;41744;52.404;16.942;2023-06-22T12:14:19;4.22;;;2.92;;
55815;SDS011;41744;52.404;16.942;2023-06-22T12:16:45;5.82;;;3.15;;
55815;SDS011;41744;52.404;16.942;2023-06-22T12:19:11;4.28;;;3.28;;
55815;SDS011;41744;52.404;16.942;2023-06-22T12:21:37;6.20;;;3.50;;
55815;SDS011;41744;52.404;16.942;2023-06-22T12:24:05;4.85;;;3.33;;
55815;SDS011;41744;52.404;16.942;2023-06-22T12:26:31;6.00;;;3.35;;
55815;SDS011;41744;52.404;16.942;2023-06-22T12:28:57;5.50;;;3.35;;
55815;SDS011;41744;52.404;16.942;2023-06-22T12:31:23;6.68;;;3.70;;
55815;SDS011;41744;52.404;16.942;2023-06-22T12:33:49;5.15;;;3.17;;
55815;SDS011;41744;52.404;16.942;2023-06-22T12:36:15;4.32;;;3.20;;
55815;SDS011;41744;52.404;16.942;2023-06-22T12:38:41;6.05;;;3.60;;
55815;SDS011;41744;52.404;16.942;2023-06-22T12:41:07;6.20;;;3.40;;
55815;SDS011;41744;52.404;16.942;2023-06-22T12:43:33;6.68;;;3.33;;
55815;SDS011;41744;52.404;16.942;2023-06-22T12:45:59;5.50;;;3.80;;
55815;SDS011;41744;52.404;16.942;2023-06-22T12:48:26;6.45;;;3.63;;
55815;SDS011;41744;52.404;16.942;2023-06-22T12:50:53;9.57;;;5.35;;
55815;SDS011;41744;52.404;16.942;2023-06-22T12:53:19;7.70;;;3.60;;
55815;SDS011;41744;52.404;16.942;2023-06-22T12:55:47;7.15;;;3.47;;
55815;SDS011;41744;52.404;16.942;2023-06-22T12:58:13;4.35;;;3.22;;
55815;SDS011;41744;52.404;16.942;2023-06-22T13:00:39;4.47;;;3.35;;
55815;SDS011;41744;52.404;16.942;2023-06-22T13:03:05;8.45;;;5.30;;
55815;SDS011;41744;52.404;16.942;2023-06-22T13:05:31;8.73;;;4.40;;
55815;SDS011;41744;52.404;16.942;2023-06-22T13:07:59;5.07;;;3.58;;
55815;SDS011;41744;52.404;16.942;2023-06-22T13:10:28;5.90;;;3.90;;
55815;SDS011;41744;52.404;16.942;2023-06-22T13:12:54;6.15;;;3.90;;
55815;SDS011;41744;52.404;16.942;2023-06-22T13:15:25;5.43;;;3.40;;
55815;SDS011;41744;52.404;16.942;2023-06-22T13:17:51;7.13;;;3.63;;
55815;SDS011;41744;52.404;16.942;2023-06-22T13:20:17;5.68;;;3.63;;
55815;SDS011;41744;52.404;16.942;2023-06-22T13:22:43;8.20;;;3.50;;
55815;SDS011;41744;52.404;16.942;2023-06-22T13:25:10;4.25;;;3.42;;
55815;SDS011;41744;52.404;16.942;2023-06-22T13:27:40;5.35;;;3.47;;
55815;SDS011;41744;52.404;16.942;2023-06-22T13:30:06;7.07;;;4.03;;
55815;SDS011;41744;52.404;16.942;2023-06-22T13:32:33;4.35;;;3.47;;
55815;SDS011;41744;52.404;16.942;2023-06-22T13:34:59;4.20;;;3.30;;
55815;SDS011;41744;52.404;16.942;2023-06-22T13:37:25;5.15;;;3.60;;
55815;SDS011;41744;52.404;16.942;2023-06-22T13:39:51;5.35;;;3.50;;
55815;SDS011;41744;52.404;16.942;2023-06-22T13:42:17;5.80;;;3.77;;
55815;SDS011;41744;52.404;16.942;2023-06-22T13:44:43;5.90;;;4.05;;
55815;SDS011;41744;52.404;16.942;2023-06-22T13:47:09;6.22;;;3.58;;
55815;SDS011;41744;52.404;16.942;2023-06-22T13:49:36;5.90;;;3.80;;
55815;SDS011;41744;52.404;16.942;2023-06-22T13:52:02;5.05;;;3.70;;
55815;SDS011;41744;52.404;16.942;2023-06-22T13:54:29;6.30;;;4.30;;
55815;SDS011;41744;52.404;16.942;2023-06-22T13:56:55;14.98;;;8.35;;
55815;SDS011;41744;52.404;16.942;2023-06-22T13:59:21;10.02;;;7.05;;
55815;SDS011;41744;52.404;16.942;2023-06-22T14:01:47;6.88;;;4.60;;
55815;SDS011;41744;52.404;16.942;2023-06-22T14:04:13;7.85;;;4.40;;
55815;SDS011;41744;52.404;16.942;2023-06-22T14:06:39;5.13;;;3.95;;
55815;SDS011;41744;52.404;16.942;2023-06-22T14:09:05;5.50;;;3.88;;
55815;SDS011;41744;52.404;16.942;2023-06-22T14:11:32;5.43;;;4.15;;
55815;SDS011;41744;52.404;16.942;2023-06-22T14:13:58;4.45;;;3.67;;
55815;SDS011;41744;52.404;16.942;2023-06-22T14:16:24;5.15;;;3.97;;
55815;SDS011;41744;52.404;16.942;2023-06-22T14:18:50;5.80;;;3.97;;
55815;SDS011;41744;52.404;16.942;2023-06-22T14:21:16;5.18;;;3.88;;
55815;SDS011;41744;52.404;16.942;2023-06-22T14:23:42;6.07;;;4.13;;
55815;SDS011;41744;52.404;16.942;2023-06-22T14:26:14;6.38;;;4.60;;
55815;SDS011;41744;52.404;16.942;2023-06-22T14:28:42;6.75;;;4.32;;
55815;SDS011;41744;52.404;16.942;2023-06-22T14:31:12;5.65;;;3.88;;
55815;SDS011;41744;52.404;16.942;2023-06-22T14:33:38;5.35;;;3.42;;